createdAt,value
2023-04-28T00:00:22.847Z,8.69
2023-04-28T00:01:26.387Z,8.64
2023-04-28T00:02:31.820Z,8.56
2023-04-28T00:03:35.937Z,8.50
2023-04-28T00:04:39.396Z,8.44
2023-04-28T00:05:42.886Z,8.46
2023-04-28T00:06:46.369Z,8.45
2023-04-28T00:07:50.926Z,8.37
2023-04-28T00:08:55.482Z,8.39
2023-04-28T00:10:00.786Z,8.42
2023-04-28T00:11:03.534Z,8.56
2023-04-28T00:12:09.536Z,8.53
2023-04-28T00:13:13.790Z,8.53
2023-04-28T00:14:20.196Z,8.48
2023-04-28T00:15:24.473Z,8.43
2023-04-28T00:16:27.750Z,8.54
2023-04-28T00:17:32.297Z,8.56
2023-04-28T00:18:35.684Z,8.60
2023-04-28T00:19:40.929Z,8.53
2023-04-28T00:20:43.236Z,8.56
2023-04-28T00:21:48.631Z,8.53
2023-04-28T00:22:52.969Z,8.46
2023-04-28T00:23:56.355Z,8.46
2023-04-28T00:24:59.639Z,8.55
2023-04-28T00:26:03.052Z,8.48
2023-04-28T00:27:06.335Z,8.62
2023-04-28T00:28:09.632Z,8.70
2023-04-28T00:29:12.666Z,8.65
2023-04-28T00:30:17.159Z,8.68
2023-04-28T00:31:22.367Z,8.54
2023-04-28T00:32:25.524Z,8.50
2023-04-28T00:33:30.015Z,8.54
2023-04-28T00:34:33.823Z,8.54
2023-04-28T00:35:37.510Z,8.56
2023-04-28T00:36:40.595Z,8.60
2023-04-28T00:37:43.925Z,8.45
2023-04-28T00:38:46.207Z,8.54
2023-04-28T00:39:49.865Z,8.63
2023-04-28T00:40:52.226Z,8.66
2023-04-28T00:41:58.653Z,8.61
2023-04-28T00:43:02.571Z,8.62
2023-04-28T00:44:05.975Z,8.67
2023-04-28T00:45:10.316Z,8.78
2023-04-28T00:46:15.755Z,8.74
2023-04-28T00:47:25.594Z,8.57
2023-04-28T00:48:30.117Z,8.59
2023-04-28T00:49:37.839Z,8.48
2023-04-28T00:50:43.405Z,8.60
2023-04-28T00:51:47.753Z,8.63
2023-04-28T00:52:51.656Z,8.58
2023-04-28T00:53:55.485Z,8.59
2023-04-28T00:54:58.271Z,8.58
2023-04-28T00:56:01.764Z,8.54
2023-04-28T00:57:05.061Z,8.53
2023-04-28T00:58:10.132Z,8.44
2023-04-28T00:59:14.283Z,8.46
2023-04-28T01:00:17.458Z,8.40
2023-04-28T01:01:20.785Z,8.45
2023-04-28T01:02:28.828Z,8.55
2023-04-28T01:03:36.208Z,8.47
2023-04-28T01:04:39.734Z,8.57
2023-04-28T01:05:43.547Z,8.66
2023-04-28T01:06:47.912Z,8.63
2023-04-28T01:07:51.495Z,8.62
2023-04-28T01:08:56.464Z,8.49
2023-04-28T01:10:00.076Z,8.43
2023-04-28T01:11:05.444Z,8.52
2023-04-28T01:12:10.959Z,8.57
2023-04-28T01:13:21.265Z,8.58
2023-04-28T01:14:24.749Z,8.60
2023-04-28T01:15:29.388Z,8.47
2023-04-28T01:16:33.224Z,8.39
2023-04-28T01:17:37.783Z,8.45
2023-04-28T01:18:44.776Z,8.48
2023-04-28T01:19:48.223Z,8.54
2023-04-28T01:20:51.313Z,8.42
2023-04-28T01:21:54.643Z,8.51
2023-04-28T01:22:59.041Z,8.50
2023-04-28T01:24:03.706Z,8.57
2023-04-28T01:25:07.528Z,8.63
2023-04-28T01:26:10.402Z,8.52
2023-04-28T01:27:13.912Z,8.50
2023-04-28T01:28:17.322Z,8.48
2023-04-28T01:29:20.968Z,8.56
2023-04-28T01:30:23.167Z,8.56
2023-04-28T01:31:28.386Z,8.59
2023-04-28T01:32:32.090Z,8.57
2023-04-28T01:33:38.803Z,8.67
2023-04-28T01:34:42.187Z,8.58
2023-04-28T01:35:46.300Z,8.53
2023-04-28T01:36:49.751Z,8.51
2023-04-28T01:37:52.518Z,8.51
2023-04-28T01:38:58.104Z,8.52
2023-04-28T01:40:01.634Z,8.54
2023-04-28T01:41:05.058Z,8.52
2023-04-28T01:42:08.296Z,8.51
2023-04-28T01:43:11.486Z,8.44
2023-04-28T01:44:14.966Z,8.55
2023-04-28T01:45:18.714Z,8.43
2023-04-28T01:46:24.237Z,8.45
2023-04-28T01:47:29.728Z,8.45
2023-04-28T01:48:34.380Z,8.44
2023-04-28T01:49:37.743Z,8.42
2023-04-28T01:50:44.298Z,8.43
2023-04-28T01:51:47.915Z,8.31
2023-04-28T01:52:50.881Z,8.29
2023-04-28T01:53:54.262Z,8.29
2023-04-28T01:54:57.597Z,8.33
2023-04-28T01:56:00.782Z,8.43
2023-04-28T01:57:05.623Z,8.34
2023-04-28T01:58:12.923Z,8.37
2023-04-28T01:59:22.685Z,8.38
2023-04-28T02:00:28.903Z,8.43
2023-04-28T02:01:33.254Z,8.29
2023-04-28T02:02:39.526Z,8.32
2023-04-28T02:03:44.067Z,8.36
2023-04-28T02:04:47.395Z,8.32
2023-04-28T02:05:55.595Z,8.36
2023-04-28T02:06:59.726Z,8.39
2023-04-28T02:08:03.198Z,8.42
2023-04-28T02:09:06.216Z,8.32
2023-04-28T02:10:12.005Z,8.39
2023-04-28T02:11:16.478Z,8.40
2023-04-28T02:12:21.979Z,8.39
2023-04-28T02:13:27.667Z,8.39
2023-04-28T02:14:31.770Z,8.27
2023-04-28T02:15:34.974Z,8.41
2023-04-28T02:16:39.206Z,8.35
2023-04-28T02:17:42.780Z,8.21
2023-04-28T02:18:45.163Z,8.13
2023-04-28T02:19:48.786Z,8.12
2023-04-28T02:20:52.174Z,8.25
2023-04-28T02:21:55.693Z,8.29
2023-04-28T02:22:58.467Z,8.35
2023-04-28T02:24:03.123Z,8.30
2023-04-28T02:25:08.594Z,8.26
2023-04-28T02:26:13.819Z,8.23
2023-04-28T02:27:18.296Z,8.32
2023-04-28T02:28:25.612Z,8.35
2023-04-28T02:29:28.995Z,8.28
2023-04-28T02:30:36.063Z,8.25
2023-04-28T02:31:38.426Z,8.27
2023-04-28T02:32:41.415Z,8.24
2023-04-28T02:33:44.837Z,8.25
2023-04-28T02:34:48.027Z,8.33
2023-04-28T02:35:53.042Z,8.26
2023-04-28T02:36:58.429Z,8.26
2023-04-28T02:38:05.287Z,8.13
2023-04-28T02:39:08.684Z,8.10
2023-04-28T02:40:12.609Z,8.24
2023-04-28T02:41:16.135Z,8.23
2023-04-28T02:42:19.723Z,8.23
2023-04-28T02:43:23.214Z,8.26
2023-04-28T02:44:28.417Z,8.24
2023-04-28T02:45:36.817Z,8.29
2023-04-28T02:46:39.092Z,8.23
2023-04-28T02:47:42.487Z,8.35
2023-04-28T02:48:47.737Z,8.28
2023-04-28T02:49:54.062Z,8.26
2023-04-28T02:50:57.800Z,8.27
2023-04-28T02:52:01.606Z,8.27
2023-04-28T02:53:04.910Z,8.26
2023-04-28T02:54:08.722Z,8.17
2023-04-28T02:55:12.345Z,8.22
2023-04-28T02:56:15.108Z,8.18
2023-04-28T02:57:19.365Z,8.07
2023-04-28T02:58:22.772Z,8.13
2023-04-28T02:59:26.353Z,8.23
2023-04-28T03:00:30.692Z,8.25
2023-04-28T03:01:36.077Z,8.33
2023-04-28T03:02:39.523Z,8.24
2023-04-28T03:03:43.627Z,8.16
2023-04-28T03:04:47.557Z,8.20
2023-04-28T03:05:54.096Z,8.22
2023-04-28T03:06:57.886Z,8.29
2023-04-28T03:08:02.804Z,8.35
2023-04-28T03:09:06.361Z,8.34
2023-04-28T03:10:10.977Z,8.34
2023-04-28T03:11:15.979Z,8.39
2023-04-28T03:12:19.610Z,8.37
2023-04-28T03:13:24.230Z,8.39
2023-04-28T03:14:29.531Z,8.46
2023-04-28T03:15:33.562Z,8.36
2023-04-28T03:16:37.311Z,8.30
2023-04-28T03:17:44.686Z,8.27
2023-04-28T03:18:48.242Z,8.42
2023-04-28T03:19:51.680Z,8.44
2023-04-28T03:20:54.302Z,8.44
2023-04-28T03:21:59.477Z,8.48
2023-04-28T03:23:05.283Z,8.33
2023-04-28T03:24:08.795Z,8.32
2023-04-28T03:25:12.528Z,8.17
2023-04-28T03:26:17.737Z,8.20
2023-04-28T03:27:23.489Z,8.26
2023-04-28T03:28:28.453Z,8.24
2023-04-28T03:29:31.544Z,8.40
2023-04-28T03:30:35.037Z,8.44
2023-04-28T03:31:38.308Z,8.52
2023-04-28T03:32:42.649Z,8.39
2023-04-28T03:33:48.752Z,8.37
2023-04-28T03:34:53.522Z,8.32
2023-04-28T03:35:56.697Z,8.21
2023-04-28T03:37:00.993Z,8.34
2023-04-28T03:38:05.955Z,8.53
2023-04-28T03:39:10.714Z,8.52
2023-04-28T03:40:16.771Z,8.48
2023-04-28T03:41:26.861Z,8.50
2023-04-28T03:42:34.730Z,8.32
2023-04-28T03:43:39.036Z,8.47
2023-04-28T03:44:46.200Z,8.55
2023-04-28T03:45:51.625Z,8.68
2023-04-28T03:46:54.372Z,8.59
2023-04-28T03:47:58.567Z,8.49
2023-04-28T03:49:03.039Z,8.52
2023-04-28T03:50:08.011Z,8.56
2023-04-28T03:51:13.640Z,8.68
2023-04-28T03:52:17.896Z,8.72
2023-04-28T03:53:21.685Z,8.68
2023-04-28T03:54:25.159Z,8.64
2023-04-28T03:55:28.772Z,8.64
2023-04-28T03:56:34.041Z,8.74
2023-04-28T03:57:37.556Z,8.85
2023-04-28T03:58:44.121Z,8.76
2023-04-28T03:59:49.281Z,8.81
2023-04-28T04:00:52.984Z,8.61
2023-04-28T04:01:58.471Z,8.72
2023-04-28T04:03:02.395Z,8.79
2023-04-28T04:04:05.960Z,8.90
2023-04-28T04:05:11.351Z,9.00
2023-04-28T04:06:16.469Z,8.81
2023-04-28T04:07:19.898Z,8.74
2023-04-28T04:08:24.004Z,8.86
2023-04-28T04:09:27.489Z,8.88
2023-04-28T04:10:30.618Z,8.84
2023-04-28T04:11:34.507Z,8.77
2023-04-28T04:12:38.687Z,8.76
2023-04-28T04:13:42.147Z,8.69
2023-04-28T04:14:48.693Z,8.72
2023-04-28T04:15:54.971Z,8.75
2023-04-28T04:17:00.787Z,8.88
2023-04-28T04:18:03.960Z,8.81
2023-04-28T04:19:09.322Z,8.64
2023-04-28T04:20:13.833Z,8.58
2023-04-28T04:21:16.977Z,8.60
2023-04-28T04:22:21.672Z,8.56
2023-04-28T04:23:26.327Z,8.41
2023-04-28T04:24:29.950Z,8.33
2023-04-28T04:25:33.340Z,8.35
2023-04-28T04:26:38.348Z,8.43
2023-04-28T04:27:44.632Z,8.59
2023-04-28T04:28:47.505Z,8.60
2023-04-28T04:29:52.053Z,8.51
2023-04-28T04:30:57.378Z,8.64
2023-04-28T04:32:02.465Z,8.78
2023-04-28T04:33:06.279Z,8.65
2023-04-28T04:34:10.371Z,8.66
2023-04-28T04:35:14.175Z,8.70
2023-04-28T04:36:17.478Z,8.50
2023-04-28T04:37:21.083Z,8.37
2023-04-28T04:38:29.788Z,8.42
2023-04-28T04:39:34.365Z,8.51
2023-04-28T04:40:37.673Z,8.54
2023-04-28T04:41:42.311Z,8.43
2023-04-28T04:42:50.294Z,8.48
2023-04-28T04:43:55.159Z,8.34
2023-04-28T04:44:58.669Z,8.29
2023-04-28T04:46:05.369Z,8.34
2023-04-28T04:47:09.230Z,8.43
2023-04-28T04:48:14.073Z,8.64
2023-04-28T04:49:18.949Z,8.63
2023-04-28T04:50:24.238Z,8.61
2023-04-28T04:51:29.936Z,8.57
2023-04-28T04:52:33.222Z,8.51
2023-04-28T04:53:36.648Z,8.66
2023-04-28T04:54:40.345Z,8.79
2023-04-28T04:55:44.586Z,8.83
2023-04-28T04:56:48.504Z,8.81
2023-04-28T04:57:55.047Z,8.95
2023-04-28T04:59:16.924Z,8.79
2023-04-28T05:00:22.429Z,8.89
2023-04-28T05:01:26.489Z,9.05
2023-04-28T05:02:32.011Z,9.06
2023-04-28T05:03:39.484Z,9.08
2023-04-28T05:04:43.053Z,9.08
2023-04-28T05:05:47.624Z,8.97
2023-04-28T05:06:58.800Z,9.02
2023-04-28T05:08:02.962Z,9.05
2023-04-28T05:09:06.452Z,9.07
2023-04-28T05:10:12.106Z,8.99
2023-04-28T05:11:16.363Z,9.03
2023-04-28T05:12:22.699Z,9.10
2023-04-28T05:13:25.679Z,9.04
2023-04-28T05:14:30.781Z,9.20
2023-04-28T05:15:35.824Z,9.26
2023-04-28T05:16:44.261Z,9.32
2023-04-28T05:17:49.657Z,9.30
2023-04-28T05:18:53.655Z,9.21
2023-04-28T05:19:56.110Z,9.38
2023-04-28T05:21:02.483Z,9.56
2023-04-28T05:22:05.105Z,9.65
2023-04-28T05:23:08.848Z,9.61
2023-04-28T05:24:12.952Z,9.58
2023-04-28T05:25:17.076Z,9.40
2023-04-28T05:26:20.815Z,9.60
2023-04-28T05:27:23.248Z,9.51
2023-04-28T05:28:31.777Z,9.85
2023-04-28T05:29:38.327Z,9.63
2023-04-28T05:30:44.136Z,9.68
2023-04-28T05:31:47.760Z,9.72
2023-04-28T05:32:51.890Z,9.86
2023-04-28T05:33:57.659Z,9.74
2023-04-28T05:35:02.544Z,9.97
2023-04-28T05:36:06.664Z,10.11
2023-04-28T05:37:10.573Z,10.15
2023-04-28T05:38:14.816Z,10.16
2023-04-28T05:39:19.567Z,10.18
2023-04-28T05:40:23.519Z,10.38
2023-04-28T05:41:27.926Z,10.40
2023-04-28T05:42:31.891Z,10.34
2023-04-28T05:43:35.676Z,10.31
2023-04-28T05:44:42.978Z,10.26
2023-04-28T05:45:48.027Z,10.14
2023-04-28T05:46:51.620Z,10.36
2023-04-28T05:47:57.238Z,10.41
2023-04-28T05:49:03.780Z,10.39
2023-04-28T05:50:10.261Z,10.66
2023-04-28T05:51:13.491Z,10.90
2023-04-28T05:52:17.734Z,11.09
2023-04-28T05:53:21.770Z,11.37
2023-04-28T05:54:28.606Z,11.46
2023-04-28T05:55:33.159Z,11.55
2023-04-28T05:56:36.848Z,11.63
2023-04-28T05:57:49.666Z,11.92
2023-04-28T05:58:46.286Z,12.41
2023-04-28T05:59:49.977Z,12.35
2023-04-28T06:00:55.608Z,12.63
2023-04-28T06:01:58.216Z,12.65
2023-04-28T06:03:01.734Z,12.67
2023-04-28T06:04:05.968Z,12.84
2023-04-28T06:05:11.570Z,12.89
2023-04-28T06:06:16.267Z,12.80
2023-04-28T06:07:19.739Z,12.64
2023-04-28T06:08:22.866Z,12.75
2023-04-28T06:09:26.117Z,13.30
2023-04-28T06:10:29.653Z,13.48
2023-04-28T06:11:34.127Z,13.30
2023-04-28T06:12:37.038Z,13.18
2023-04-28T06:13:40.973Z,13.38
2023-04-28T06:14:45.635Z,13.67
2023-04-28T06:15:49.661Z,14.19
2023-04-28T06:16:53.367Z,14.49
2023-04-28T06:17:56.006Z,14.43
2023-04-28T06:18:59.646Z,13.97
2023-04-28T06:20:02.840Z,14.63
2023-04-28T06:21:06.261Z,15.55
2023-04-28T06:22:09.525Z,16.43
2023-04-28T06:23:13.132Z,16.47
2023-04-28T06:24:19.334Z,15.37
2023-04-28T06:25:23.276Z,15.56
2023-04-28T06:26:28.587Z,16.38
2023-04-28T06:27:39.556Z,17.44
2023-04-28T06:28:39.025Z,18.24
2023-04-28T06:29:44.304Z,18.57
2023-04-28T06:30:48.073Z,19.59
2023-04-28T06:31:52.081Z,20.30
2023-04-28T06:32:57.271Z,20.58
2023-04-28T06:34:01.461Z,20.12
2023-04-28T06:35:05.432Z,20.72
2023-04-28T06:36:08.462Z,21.06
2023-04-28T06:37:11.765Z,20.65
2023-04-28T06:38:15.224Z,20.60
2023-04-28T06:39:18.775Z,20.10
2023-04-28T06:40:22.069Z,20.03
2023-04-28T06:41:26.727Z,20.80
2023-04-28T06:42:29.392Z,20.48
2023-04-28T06:43:34.883Z,20.93
2023-04-28T06:44:51.013Z,22.19
2023-04-28T06:45:54.276Z,23.22
2023-04-28T06:47:02.392Z,22.78
2023-04-28T06:48:06.162Z,22.05
2023-04-28T06:49:10.482Z,21.98
2023-04-28T06:50:13.772Z,22.23
2023-04-28T06:51:16.232Z,22.96
2023-04-28T06:52:22.762Z,22.16
2023-04-28T06:53:26.168Z,21.99
2023-04-28T06:54:29.479Z,22.39
2023-04-28T06:55:32.029Z,22.16
2023-04-28T06:56:37.125Z,22.15
2023-04-28T06:57:40.287Z,21.83
2023-04-28T06:58:44.630Z,22.25
2023-04-28T06:59:49.386Z,23.26
2023-04-28T07:00:53.813Z,24.17
2023-04-28T07:01:57.804Z,22.93
2023-04-28T07:03:03.357Z,22.24
2023-04-28T07:04:06.405Z,22.82
2023-04-28T07:05:09.008Z,23.26
2023-04-28T07:06:14.460Z,23.08
2023-04-28T07:07:17.580Z,23.41
2023-04-28T07:08:20.887Z,22.77
2023-04-28T07:09:24.060Z,22.65
2023-04-28T07:10:29.340Z,23.21
2023-04-28T07:11:33.066Z,23.80
2023-04-28T07:12:35.752Z,23.33
2023-04-28T07:13:41.134Z,23.04
2023-04-28T07:14:44.624Z,23.64
2023-04-28T07:15:48.129Z,23.94
2023-04-28T07:16:53.752Z,24.12
2023-04-28T07:17:57.666Z,23.58
2023-04-28T07:19:01.044Z,24.34
2023-04-28T07:20:07.033Z,23.73
2023-04-28T07:21:10.680Z,22.99
2023-04-28T07:22:13.951Z,24.48
2023-04-28T07:23:17.579Z,24.28
2023-04-28T07:24:21.495Z,23.13
2023-04-28T07:25:24.061Z,23.20
2023-04-28T07:26:28.587Z,23.22
2023-04-28T07:27:33.262Z,24.31
2023-04-28T07:28:36.663Z,22.48
2023-04-28T07:29:39.921Z,23.60
2023-04-28T07:30:44.404Z,23.69
2023-04-28T07:31:47.852Z,23.85
2023-04-28T07:32:51.836Z,22.77
2023-04-28T07:33:54.502Z,23.15
2023-04-28T07:34:58.113Z,22.93
2023-04-28T07:36:01.700Z,22.96
2023-04-28T07:37:05.854Z,22.53
2023-04-28T07:38:09.590Z,22.97
2023-04-28T07:39:13.176Z,21.94
2023-04-28T07:40:16.599Z,21.87
2023-04-28T07:41:20.510Z,20.47
2023-04-28T07:42:23.929Z,19.15
2023-04-28T07:43:28.337Z,20.15
2023-04-28T07:44:31.324Z,20.74
2023-04-28T07:45:34.521Z,21.12
2023-04-28T07:46:38.346Z,21.32
2023-04-28T07:47:49.765Z,21.96
2023-04-28T07:48:54.327Z,21.83
2023-04-28T07:49:58.248Z,22.33
2023-04-28T07:51:01.463Z,20.70
2023-04-28T07:52:04.835Z,21.74
2023-04-28T07:53:11.169Z,22.70
2023-04-28T07:54:16.283Z,22.32
2023-04-28T07:55:23.188Z,22.00
2023-04-28T07:56:27.102Z,19.73
2023-04-28T07:57:31.021Z,19.13
2023-04-28T07:58:34.317Z,20.05
2023-04-28T07:59:37.027Z,20.67
2023-04-28T08:00:41.304Z,20.74
2023-04-28T08:01:44.882Z,20.53
2023-04-28T08:02:48.471Z,20.78
2023-04-28T08:03:52.424Z,21.03
2023-04-28T08:04:55.128Z,20.35
2023-04-28T08:06:02.876Z,20.44
2023-04-28T08:07:07.732Z,20.05
2023-04-28T08:08:11.624Z,19.79
2023-04-28T08:09:15.260Z,19.20
2023-04-28T08:10:19.777Z,19.20
2023-04-28T08:11:24.502Z,18.89
2023-04-28T08:12:29.866Z,19.26
2023-04-28T08:13:33.652Z,19.13
2023-04-28T08:14:37.556Z,19.17
2023-04-28T08:15:39.957Z,18.97
2023-04-28T08:16:44.774Z,18.46
2023-04-28T08:17:49.571Z,18.01
2023-04-28T08:18:53.159Z,18.69
2023-04-28T08:19:55.809Z,18.63
2023-04-28T08:20:59.628Z,18.70
2023-04-28T08:22:04.717Z,18.54
2023-04-28T08:23:10.650Z,18.63
2023-04-28T08:24:14.006Z,18.97
2023-04-28T08:25:19.516Z,18.56
2023-04-28T08:26:22.739Z,18.73
2023-04-28T08:27:26.285Z,19.13
2023-04-28T08:28:29.108Z,18.63
2023-04-28T08:29:34.349Z,18.03
2023-04-28T08:30:38.405Z,17.72
2023-04-28T08:31:42.111Z,17.70
2023-04-28T08:32:45.546Z,18.07
2023-04-28T08:33:51.096Z,17.19
2023-04-28T08:34:55.235Z,17.51
2023-04-28T08:35:57.789Z,17.52
2023-04-28T08:37:00.553Z,18.15
2023-04-28T08:38:05.108Z,18.04
2023-04-28T08:39:12.976Z,17.98
2023-04-28T08:40:16.738Z,17.96
2023-04-28T08:41:20.844Z,17.89
2023-04-28T08:42:24.452Z,17.75
2023-04-28T08:43:28.946Z,17.28
2023-04-28T08:44:40.394Z,17.02
2023-04-28T08:45:44.473Z,17.03
2023-04-28T08:46:50.254Z,16.60
2023-04-28T08:47:54.539Z,16.53
2023-04-28T08:49:06.475Z,16.15
2023-04-28T08:50:10.843Z,16.01
2023-04-28T08:51:16.277Z,16.36
2023-04-28T08:52:21.273Z,16.56
2023-04-28T08:53:28.363Z,16.78
2023-04-28T08:54:32.925Z,16.35
2023-04-28T08:55:40.477Z,16.23
2023-04-28T08:56:46.491Z,15.92
2023-04-28T09:00:20.613Z,16.74
2023-04-28T09:01:24.391Z,17.38
2023-04-28T09:02:28.898Z,17.07
2023-04-28T09:03:34.895Z,17.72
2023-04-28T09:04:38.722Z,18.14
2023-04-28T09:05:42.223Z,17.98
2023-04-28T09:06:46.290Z,17.61
2023-04-28T09:07:50.560Z,18.15
2023-04-28T09:08:53.148Z,18.16
2023-04-28T09:10:09.784Z,18.52
2023-04-28T09:11:14.008Z,18.03
2023-04-28T09:12:18.987Z,18.66
2023-04-28T09:13:27.107Z,18.11
2023-04-28T09:14:33.917Z,18.06
2023-04-28T09:15:39.598Z,17.60
2023-04-28T09:16:43.088Z,17.72
2023-04-28T09:17:53.132Z,17.93
2023-04-28T09:18:58.625Z,18.06
2023-04-28T09:20:02.105Z,17.93
2023-04-28T09:21:08.524Z,18.34
2023-04-28T09:22:25.445Z,18.27
2023-04-28T09:23:18.274Z,18.08
2023-04-28T09:24:37.548Z,18.05
2023-04-28T09:25:39.908Z,18.38
2023-04-28T09:26:55.766Z,18.22
2023-04-28T09:27:59.680Z,18.16
2023-04-28T09:29:13.474Z,18.75
2023-04-28T09:30:17.768Z,18.42
2023-04-28T09:31:25.057Z,18.70
2023-04-28T09:32:29.125Z,18.68
2023-04-28T09:33:31.731Z,18.33
2023-04-28T09:34:45.707Z,17.86
2023-04-28T09:35:49.475Z,17.39
2023-04-28T09:36:52.894Z,17.21
2023-04-28T09:37:59.614Z,17.60
2023-04-28T09:39:01.870Z,17.69
2023-04-28T09:40:10.875Z,17.46
2023-04-28T09:41:14.538Z,17.39
2023-04-28T09:42:37.028Z,17.46
2023-04-28T09:43:40.424Z,17.76
2023-04-28T09:44:46.965Z,18.07
2023-04-28T09:45:50.511Z,17.59
2023-04-28T09:46:53.245Z,17.56
2023-04-28T09:48:01.404Z,17.17
2023-04-28T09:49:05.057Z,16.88
2023-04-28T09:50:09.766Z,17.31
2023-04-28T09:51:13.172Z,17.46
2023-04-28T09:52:18.036Z,17.10
2023-04-28T09:53:23.257Z,17.48
2023-04-28T09:54:28.081Z,17.71
2023-04-28T09:55:34.674Z,18.07
2023-04-28T09:56:42.342Z,18.49
2023-04-28T09:57:49.842Z,18.25
2023-04-28T09:58:54.249Z,17.96
2023-04-28T09:59:58.514Z,17.90
2023-04-28T10:01:02.268Z,17.44
2023-04-28T10:02:22.472Z,17.51
2023-04-28T10:03:12.355Z,17.46
2023-04-28T10:04:16.432Z,17.19
2023-04-28T10:05:20.723Z,17.21
2023-04-28T10:06:25.799Z,17.10
2023-04-28T10:07:31.013Z,17.05
2023-04-28T10:08:33.725Z,17.25
2023-04-28T10:09:36.726Z,16.95
2023-04-28T10:10:41.476Z,16.79
2023-04-28T10:11:44.587Z,17.06
2023-04-28T10:12:48.310Z,17.23
2023-04-28T10:13:52.420Z,17.44
2023-04-28T10:14:55.813Z,17.41
2023-04-28T10:15:59.549Z,17.21
2023-04-28T10:17:04.901Z,17.35
2023-04-28T10:18:16.463Z,17.31
2023-04-28T10:19:21.028Z,17.12
2023-04-28T10:20:27.561Z,17.50
2023-04-28T10:21:32.820Z,17.17
2023-04-28T10:22:42.004Z,17.27
2023-04-28T10:23:51.741Z,17.21
2023-04-28T10:25:16.128Z,17.34
2023-04-28T10:26:19.640Z,17.10
2023-04-28T10:27:24.910Z,17.02
2023-04-28T10:28:30.729Z,17.07
2023-04-28T10:29:35.170Z,17.11
2023-04-28T10:30:38.626Z,17.16
2023-04-28T10:31:43.904Z,16.99
2023-04-28T10:32:50.124Z,17.34
2023-04-28T10:33:53.575Z,17.05
2023-04-28T10:35:18.492Z,16.77
2023-04-28T10:36:38.328Z,16.48
2023-04-28T10:38:00.078Z,16.58
2023-04-28T10:39:10.253Z,17.10
2023-04-28T10:40:31.969Z,17.03
2023-04-28T10:41:34.656Z,16.73
2023-04-28T10:42:49.600Z,16.45
2023-04-28T10:43:53.435Z,16.24
2023-04-28T10:44:56.688Z,16.13
2023-04-28T10:46:01.669Z,16.01
2023-04-28T10:47:07.036Z,16.15
2023-04-28T10:48:10.582Z,16.29
2023-04-28T10:49:12.933Z,16.71
2023-04-28T10:50:24.039Z,16.47
2023-04-28T10:51:27.848Z,16.50
2023-04-28T10:52:34.836Z,16.53
2023-04-28T10:53:45.241Z,16.61
2023-04-28T10:55:19.374Z,16.62
2023-04-28T10:56:20.242Z,16.73
2023-04-28T10:57:23.580Z,16.49
2023-04-28T10:58:27.760Z,16.42
2023-04-28T10:59:31.279Z,16.46
2023-04-28T11:00:35.607Z,16.21
2023-04-28T11:01:40.693Z,16.20
2023-04-28T11:02:45.331Z,16.17
2023-04-28T11:03:51.231Z,16.16
2023-04-28T11:05:15.666Z,16.41
2023-04-28T11:06:21.457Z,16.12
2023-04-28T11:07:26.585Z,16.03
2023-04-28T11:08:34.969Z,16.03
2023-04-28T11:09:40.942Z,16.05
2023-04-28T11:11:05.870Z,16.07
2023-04-28T11:12:10.949Z,16.16
2023-04-28T11:13:32.742Z,16.60
2023-04-28T11:14:37.380Z,16.52
2023-04-28T11:15:40.763Z,16.28
2023-04-28T11:16:46.163Z,16.37
2023-04-28T11:17:52.249Z,16.27
2023-04-28T11:18:58.091Z,16.24
2023-04-28T11:20:07.829Z,16.46
2023-04-28T11:21:11.817Z,16.43
2023-04-28T11:22:17.161Z,16.70
2023-04-28T11:23:19.920Z,16.66
2023-04-28T11:24:22.590Z,16.10
2023-04-28T11:25:25.703Z,16.36
2023-04-28T11:26:30.961Z,16.23
2023-04-28T11:27:35.991Z,16.30
2023-04-28T11:28:51.213Z,16.03
2023-04-28T11:29:53.886Z,16.17
2023-04-28T11:31:02.760Z,15.81
2023-04-28T11:32:09.015Z,16.11
2023-04-28T11:33:15.496Z,15.97
2023-04-28T11:34:21.700Z,15.97
2023-04-28T11:35:24.890Z,16.10
2023-04-28T11:36:38.744Z,16.01
2023-04-28T11:37:42.259Z,16.02
2023-04-28T11:38:46.278Z,16.14
2023-04-28T11:39:53.129Z,16.13
2023-04-28T11:40:59.158Z,16.14
2023-04-28T11:42:03.819Z,16.21
2023-04-28T11:43:07.403Z,16.08
2023-04-28T11:44:12.158Z,16.13
2023-04-28T11:45:15.562Z,16.30
2023-04-28T11:46:21.716Z,16.45
2023-04-28T11:47:31.233Z,16.48
2023-04-28T11:48:34.221Z,16.58
2023-04-28T11:49:44.524Z,16.48
2023-04-28T11:50:50.993Z,16.38
2023-04-28T11:51:56.469Z,15.93
2023-04-28T11:53:00.624Z,16.15
2023-04-28T11:54:04.175Z,16.28
2023-04-28T11:55:09.152Z,16.25
2023-04-28T11:56:15.375Z,16.14
2023-04-28T11:57:22.019Z,15.82
2023-04-28T11:58:29.582Z,15.79
2023-04-28T11:59:34.553Z,15.96
2023-04-28T12:00:38.993Z,16.18
2023-04-28T12:01:49.727Z,16.21
2023-04-28T12:02:52.762Z,16.10
2023-04-28T12:03:56.494Z,15.95
2023-04-28T12:05:02.726Z,15.80
2023-04-28T12:06:06.337Z,15.78
2023-04-28T12:07:14.352Z,15.59
2023-04-28T12:08:19.601Z,15.75
2023-04-28T12:09:24.675Z,15.89
2023-04-28T12:10:30.171Z,15.85
2023-04-28T12:11:33.042Z,15.74
2023-04-28T12:12:48.969Z,15.77
2023-04-28T12:13:42.457Z,15.61
2023-04-28T12:14:55.186Z,15.57
2023-04-28T12:15:59.779Z,15.51
2023-04-28T12:17:03.320Z,15.68
2023-04-28T12:18:13.615Z,15.49
2023-04-28T12:19:17.954Z,15.88
2023-04-28T12:20:35.238Z,16.12
2023-04-28T12:21:40.530Z,16.25
2023-04-28T12:22:45.497Z,16.37
2023-04-28T12:23:48.998Z,16.12
2023-04-28T12:25:08.418Z,15.99
2023-04-28T12:26:10.949Z,15.91
2023-04-28T12:27:15.509Z,15.90
2023-04-28T12:28:17.839Z,15.88
2023-04-28T12:29:41.041Z,16.07
2023-04-28T12:30:44.908Z,15.76
2023-04-28T12:31:49.809Z,15.83
2023-04-28T12:32:56.471Z,15.79
2023-04-28T12:33:59.806Z,16.04
2023-04-28T12:35:02.740Z,15.97
2023-04-28T12:36:10.621Z,16.01
2023-04-28T12:37:13.832Z,15.80
2023-04-28T12:38:16.666Z,15.88
2023-04-28T12:39:20.788Z,15.62
2023-04-28T12:40:27.422Z,15.87
2023-04-28T12:41:30.928Z,15.74
2023-04-28T12:42:33.521Z,15.71
2023-04-28T12:43:37.127Z,15.75
2023-04-28T12:44:42.285Z,15.67
2023-04-28T12:45:46.032Z,15.53
2023-04-28T12:46:49.596Z,15.61
2023-04-28T12:47:53.164Z,15.49
2023-04-28T12:48:56.634Z,15.63
2023-04-28T12:50:00.027Z,15.74
2023-04-28T12:51:02.696Z,15.83
2023-04-28T12:52:11.712Z,15.86
2023-04-28T12:53:11.482Z,15.82
2023-04-28T12:54:16.224Z,15.85
2023-04-28T12:55:19.526Z,15.96
2023-04-28T12:56:25.387Z,15.61
2023-04-28T12:57:30.088Z,15.57
2023-04-28T12:58:34.253Z,15.57
2023-04-28T12:59:40.127Z,15.80
2023-04-28T13:00:42.797Z,15.62
2023-04-28T13:01:45.678Z,15.78
2023-04-28T13:02:51.703Z,15.60
2023-04-28T13:03:56.632Z,15.55
2023-04-28T13:05:00.246Z,15.55
2023-04-28T13:06:04.643Z,15.51
2023-04-28T13:07:07.787Z,15.43
2023-04-28T13:08:11.202Z,15.43
2023-04-28T13:09:19.183Z,15.45
2023-04-28T13:10:23.834Z,15.30
2023-04-28T13:11:29.652Z,15.24
2023-04-28T13:12:35.292Z,15.21
2023-04-28T13:13:38.830Z,15.37
2023-04-28T13:14:43.451Z,15.21
2023-04-28T13:15:46.906Z,15.24
2023-04-28T13:16:49.571Z,15.24
2023-04-28T13:17:52.891Z,15.08
2023-04-28T13:18:56.694Z,15.01
2023-04-28T13:20:00.705Z,15.24
2023-04-28T13:21:07.339Z,15.32
2023-04-28T13:22:11.074Z,15.25
2023-04-28T13:23:14.277Z,15.26
2023-04-28T13:24:16.512Z,15.54
2023-04-28T13:25:19.918Z,15.54
2023-04-28T13:26:26.771Z,15.56
2023-04-28T13:27:32.109Z,15.75
2023-04-28T13:28:38.358Z,15.61
2023-04-28T13:29:40.858Z,15.51
2023-04-28T13:30:45.160Z,15.71
2023-04-28T13:31:48.074Z,15.77
2023-04-28T13:32:51.705Z,15.53
2023-04-28T13:33:55.164Z,15.47
2023-04-28T13:34:57.404Z,15.58
2023-04-28T13:36:00.747Z,15.62
2023-04-28T13:37:04.228Z,15.44
2023-04-28T13:38:07.928Z,15.26
2023-04-28T13:39:17.387Z,15.21
2023-04-28T13:40:20.262Z,15.22
2023-04-28T13:41:22.628Z,15.30
2023-04-28T13:42:25.923Z,15.10
2023-04-28T13:43:29.322Z,15.27
2023-04-28T13:44:33.048Z,15.27
2023-04-28T13:45:36.310Z,15.26
2023-04-28T13:46:39.831Z,15.14
2023-04-28T13:47:43.207Z,15.17
2023-04-28T13:48:46.622Z,15.15
2023-04-28T13:49:52.150Z,15.17
2023-04-28T13:50:55.732Z,15.22
2023-04-28T13:52:00.172Z,15.30
2023-04-28T13:53:03.684Z,15.26
2023-04-28T13:54:13.284Z,15.32
2023-04-28T13:55:16.844Z,15.15
2023-04-28T13:56:20.067Z,15.13
2023-04-28T13:57:22.374Z,15.13
2023-04-28T13:58:25.488Z,15.22
2023-04-28T13:59:29.812Z,15.39
2023-04-28T14:00:34.254Z,15.16
2023-04-28T14:01:37.618Z,15.12
2023-04-28T14:02:40.965Z,15.21
2023-04-28T14:03:45.480Z,15.28
2023-04-28T14:04:51.550Z,15.17
2023-04-28T14:05:57.016Z,15.10
2023-04-28T14:06:59.359Z,15.03
2023-04-28T14:08:05.777Z,14.96
2023-04-28T14:09:10.678Z,14.70
2023-04-28T14:10:14.378Z,14.65